Time;durP1;ratioP1;P1;durP2;ratioP2;P2;SDS_P1;SDS_P2;PMS_P1;PMS_P2;Temp;Humidity;BMP_temperature;BMP_pressure;BME280_temperature;BME280_humidity;BME280_pressure;Samples;Min_cycle;Max_cycle;Signal;HPM_P1;HPM_P2
2021/01/21 00:01:21;;;;;;;36.47;21.58;;;4.00;99.90;;;;;;5074213;28;20385;-70
2021/01/21 00:03:47;;;;;;;35.67;23.15;;;4.10;99.90;;;;;;5074719;28;20028;-73
2021/01/21 00:06:13;;;;;;;38.15;21.60;;;4.00;99.90;;;;;;5075106;28;20024;-71
2021/01/21 00:08:39;;;;;;;34.60;21.63;;;4.10;99.90;;;;;;5075023;28;20016;-70
2021/01/21 00:11:05;;;;;;;46.15;23.48;;;4.10;99.90;;;;;;5074508;28;20116;-71
2021/01/21 00:13:31;;;;;;;41.80;23.60;;;4.10;99.90;;;;;;5074348;28;20526;-70
2021/01/21 00:15:57;;;;;;;34.97;21.52;;;4.10;99.90;;;;;;5074607;28;20045;-71
2021/01/21 00:18:22;;;;;;;40.28;21.25;;;4.10;99.90;;;;;;5058240;28;20124;-70
2021/01/21 00:20:48;;;;;;;36.72;20.52;;;4.10;99.90;;;;;;5094711;28;20051;-70
2021/01/21 00:23:14;;;;;;;34.72;21.13;;;4.10;99.90;;;;;;5094713;28;20024;-69
2021/01/21 00:25:40;;;;;;;39.70;20.98;;;4.10;99.90;;;;;;5094565;28;20477;-71
2021/01/21 00:28:05;;;;;;;42.38;23.27;;;4.20;99.90;;;;;;5094423;28;20039;-69
2021/01/21 00:30:32;;;;;;;38.83;21.45;;;4.20;99.90;;;;;;5094385;28;20024;-70
2021/01/21 00:32:57;;;;;;;38.83;21.15;;;4.20;99.90;;;;;;5094307;28;20047;-71
2021/01/21 00:35:23;;;;;;;37.50;20.73;;;4.20;99.90;;;;;;5094519;28;20020;-70
2021/01/21 00:37:49;;;;;;;34.67;19.38;;;4.10;99.90;;;;;;5094610;28;20028;-69
2021/01/21 00:40:15;;;;;;;37.03;20.15;;;4.20;99.90;;;;;;5093760;28;20096;-69
2021/01/21 00:42:40;;;;;;;36.53;20.75;;;4.20;99.90;;;;;;5094512;28;20028;-70
2021/01/21 00:45:07;;;;;;;36.78;21.75;;;4.20;99.90;;;;;;5094206;28;20191;-70
2021/01/21 00:47:33;;;;;;;37.28;18.38;;;4.20;99.90;;;;;;5093723;28;20477;-71
2021/01/21 00:50:00;;;;;;;33.47;20.08;;;4.20;99.90;;;;;;5094389;28;20032;-70
2021/01/21 00:52:25;;;;;;;31.95;18.25;;;4.20;99.90;;;;;;5090403;28;20064;-71
2021/01/21 00:54:51;;;;;;;32.83;19.58;;;4.20;99.90;;;;;;5094091;28;20477;-70
2021/01/21 00:57:17;;;;;;;33.10;18.52;;;4.30;99.90;;;;;;5094277;28;20454;-71
2021/01/21 00:59:43;;;;;;;27.13;15.73;;;4.20;99.90;;;;;;5093716;28;20039;-69
2021/01/21 01:02:08;;;;;;;34.88;18.55;;;4.30;99.90;;;;;;5093773;28;20454;-70
2021/01/21 01:04:34;;;;;;;32.95;17.15;;;4.30;99.90;;;;;;5071728;28;20524;-70
2021/01/21 01:07:00;;;;;;;26.88;15.88;;;4.30;99.90;;;;;;5083673;28;20386;-70
2021/01/21 01:09:25;;;;;;;32.97;18.25;;;4.30;99.90;;;;;;5093700;28;20461;-68
2021/01/21 01:11:51;;;;;;;26.85;17.13;;;4.30;99.90;;;;;;5094119;28;20103;-70
2021/01/21 01:14:17;;;;;;;32.75;19.73;;;4.30;99.90;;;;;;5093620;28;20028;-71
2021/01/21 01:16:43;;;;;;;30.33;18.02;;;4.30;99.90;;;;;;5077155;28;20506;-72
2021/01/21 01:19:09;;;;;;;33.20;18.38;;;4.20;99.90;;;;;;5073305;28;20105;-69
2021/01/21 01:21:34;;;;;;;30.08;17.52;;;4.20;99.90;;;;;;5073090;28;20046;-72
2021/01/21 01:24:00;;;;;;;32.22;18.15;;;4.20;99.90;;;;;;5073609;28;20081;-72
2021/01/21 01:26:26;;;;;;;34.80;19.70;;;4.10;99.90;;;;;;5073249;28;20024;-71
2021/01/21 01:28:52;;;;;;;34.97;18.88;;;4.10;99.90;;;;;;5073001;28;20081;-72
2021/01/21 01:31:17;;;;;;;33.75;18.88;;;4.00;99.90;;;;;;5073608;28;20474;-71
2021/01/21 01:33:44;;;;;;;28.80;16.75;;;3.90;99.90;;;;;;5074091;28;20386;-70
2021/01/21 01:36:10;;;;;;;34.63;18.50;;;3.90;99.90;;;;;;5073414;28;20029;-71
2021/01/21 01:38:35;;;;;;;29.98;18.67;;;3.90;99.90;;;;;;5073379;28;20024;-70
2021/01/21 01:41:01;;;;;;;27.38;17.98;;;3.90;99.90;;;;;;5073199;28;20032;-70
2021/01/21 01:43:27;;;;;;;29.13;18.60;;;3.80;99.90;;;;;;5072977;28;20025;-69
2021/01/21 01:45:53;;;;;;;26.92;16.17;;;3.80;99.90;;;;;;5073441;28;20032;-71
2021/01/21 01:48:19;;;;;;;33.42;18.85;;;3.80;99.90;;;;;;5072895;28;20028;-72
2021/01/21 01:50:45;;;;;;;30.20;16.42;;;3.80;99.90;;;;;;5054553;28;20524;-72
2021/01/21 01:53:11;;;;;;;27.85;16.83;;;3.70;99.90;;;;;;5072997;28;20033;-71
2021/01/21 01:55:40;;;;;;;33.28;17.15;;;3.70;99.90;;;;;;5072755;28;20020;-69
2021/01/21 01:58:08;;;;;;;25.70;16.15;;;3.80;99.90;;;;;;5073331;28;20024;-70
2021/01/21 02:00:34;;;;;;;24.27;16.17;;;3.70;99.90;;;;;;5073121;28;20012;-71
2021/01/21 02:03:00;;;;;;;27.73;16.08;;;3.80;99.90;;;;;;5072475;28;20028;-73
2021/01/21 02:05:26;;;;;;;33.58;16.10;;;3.70;99.90;;;;;;5073125;28;20055;-70
2021/01/21 02:07:52;;;;;;;28.90;17.13;;;3.70;99.90;;;;;;5073075;28;20024;-71
2021/01/21 02:10:19;;;;;;;25.25;15.98;;;3.70;99.90;;;;;;5072917;28;20019;-73
2021/01/21 02:12:57;;;;;;;30.13;17.58;;;3.70;99.90;;;;;;5072974;28;20056;-72
2021/01/21 02:15:43;;;;;;;27.88;16.52;;;3.70;99.90;;;;;;5072913;28;20119;-71
2021/01/21 02:18:13;;;;;;;29.35;17.40;;;3.70;99.90;;;;;;5014587;28;20462;-73
2021/01/21 02:21:15;;;;;;;29.33;16.90;;;3.60;99.90;;;;;;5063744;28;20028;-73
2021/01/21 02:23:52;;;;;;;27.75;15.10;;;3.60;99.90;;;;;;5052431;28;20051;-71
2021/01/21 02:26:37;;;;;;;25.95;16.33;;;3.60;99.90;;;;;;5061706;28;20025;-72
2021/01/21 02:29:13;;;;;;;28.50;16.15;;;3.60;99.90;;;;;;5072924;28;20024;-72
2021/01/21 02:32:01;;;;;;;23.27;14.52;;;3.70;99.90;;;;;;5072460;28;20020;-71
2021/01/21 02:34:41;;;;;;;27.40;15.82;;;3.70;99.90;;;;;;5072568;28;20060;-70
2021/01/21 02:37:18;;;;;;;28.52;15.48;;;3.60;99.90;;;;;;5072724;28;20028;-70
2021/01/21 02:39:47;;;;;;;29.65;16.35;;;3.60;99.90;;;;;;5072671;28;20025;-71
2021/01/21 02:42:13;;;;;;;26.98;15.48;;;3.60;99.90;;;;;;5072754;28;20044;-70
2021/01/21 02:44:39;;;;;;;24.20;14.60;;;3.50;99.90;;;;;;5072546;28;20343;-69
2021/01/21 02:47:04;;;;;;;27.15;15.82;;;3.60;99.90;;;;;;5071363;28;20043;-71
2021/01/21 02:49:30;;;;;;;27.75;16.95;;;3.50;99.90;;;;;;5072801;28;20028;-69
2021/01/21 02:52:20;;;;;;;31.58;17.73;;;3.50;99.90;;;;;;5052297;28;20032;-69
2021/01/21 02:54:49;;;;;;;26.20;15.73;;;3.40;99.90;;;;;;5063859;28;20028;-70
2021/01/21 02:57:54;;;;;;;30.40;17.13;;;3.40;99.90;;;;;;5037035;28;20029;-70
2021/01/21 03:00:20;;;;;;;29.70;18.38;;;3.40;99.90;;;;;;5067032;28;20044;-69
2021/01/21 03:02:55;;;;;;;26.42;16.45;;;3.40;99.90;;;;;;5073721;28;20031;-70
2021/01/21 03:05:22;;;;;;;27.27;16.75;;;3.40;99.90;;;;;;5074837;28;20030;-70
2021/01/21 03:07:48;;;;;;;29.70;16.73;;;3.40;99.90;;;;;;5076128;28;20103;-69
2021/01/21 03:10:19;;;;;;;29.08;17.95;;;3.40;99.90;;;;;;5076507;28;20028;-68
2021/01/21 03:12:56;;;;;;;31.95;16.88;;;3.40;99.90;;;;;;5056326;28;20032;-69
2021/01/21 03:15:26;;;;;;;24.38;15.27;;;3.40;99.90;;;;;;5057651;28;20029;-68
2021/01/21 03:17:52;;;;;;;24.70;14.52;;;3.40;99.90;;;;;;5068606;28;20790;-70
2021/01/21 03:20:18;;;;;;;26.85;15.80;;;3.40;99.90;;;;;;5075282;28;20016;-69
2021/01/21 03:22:44;;;;;;;26.83;15.82;;;3.40;99.90;;;;;;5075913;28;20032;-70
2021/01/21 03:25:10;;;;;;;26.42;16.42;;;3.40;99.90;;;;;;5075570;28;20021;-69
2021/01/21 03:27:37;;;;;;;26.00;15.15;;;3.30;99.90;;;;;;5075434;28;20021;-69
2021/01/21 03:30:04;;;;;;;23.80;15.70;;;3.40;99.90;;;;;;5070460;28;20017;-68
2021/01/21 03:32:30;;;;;;;22.88;14.32;;;3.40;99.90;;;;;;5075189;28;20020;-69
2021/01/21 03:34:56;;;;;;;26.92;16.08;;;3.40;99.90;;;;;;5075361;28;20024;-71
2021/01/21 03:37:22;;;;;;;28.85;16.20;;;3.30;99.90;;;;;;5075619;28;20044;-70
2021/01/21 03:39:47;;;;;;;30.27;15.07;;;3.30;99.90;;;;;;5075364;28;20099;-70
2021/01/21 03:42:13;;;;;;;26.17;14.75;;;3.40;99.90;;;;;;5075043;28;20032;-69
2021/01/21 03:44:39;;;;;;;24.92;14.60;;;3.40;99.90;;;;;;5045064;28;20043;-70
2021/01/21 03:47:04;;;;;;;29.85;13.30;;;3.40;99.90;;;;;;5073208;28;20507;-70
2021/01/21 03:49:30;;;;;;;24.67;13.45;;;3.50;99.90;;;;;;5072745;28;20027;-71
2021/01/21 03:51:56;;;;;;;22.65;13.15;;;3.50;99.90;;;;;;5075089;28;20031;-71
2021/01/21 03:54:21;;;;;;;23.20;13.73;;;3.60;99.90;;;;;;5077449;28;20024;-70
2021/01/21 03:56:47;;;;;;;17.50;11.77;;;3.60;99.90;;;;;;5077006;28;20036;-70
2021/01/21 03:59:13;;;;;;;20.65;11.38;;;3.60;99.90;;;;;;5075514;28;20505;-70
2021/01/21 04:01:39;;;;;;;16.52;10.27;;;3.60;99.90;;;;;;5057108;28;20025;-70
2021/01/21 04:04:04;;;;;;;18.83;12.13;;;3.70;99.90;;;;;;5075016;28;20032;-69
2021/01/21 04:06:30;;;;;;;21.63;12.60;;;3.70;99.90;;;;;;5075174;28;20378;-69
2021/01/21 04:08:56;;;;;;;19.27;11.80;;;3.70;99.90;;;;;;5074815;28;20096;-68
2021/01/21 04:11:22;;;;;;;17.52;10.45;;;3.60;99.90;;;;;;5075001;28;20036;-71
2021/01/21 04:13:47;;;;;;;16.88;9.65;;;3.70;99.90;;;;;;5074026;28;20434;-69
2021/01/21 04:16:13;;;;;;;13.95;8.82;;;3.70;99.90;;;;;;5071140;28;20104;-70
2021/01/21 04:18:39;;;;;;;16.02;9.40;;;3.80;99.90;;;;;;5070062;28;20048;-69
2021/01/21 04:21:05;;;;;;;12.38;8.23;;;3.80;99.90;;;;;;5074342;28;20021;-71
2021/01/21 04:23:33;;;;;;;15.18;8.85;;;3.80;99.90;;;;;;5074204;28;20032;-70
2021/01/21 04:25:59;;;;;;;13.23;7.70;;;3.80;99.90;;;;;;5074547;28;20074;-70
2021/01/21 04:28:25;;;;;;;15.85;7.65;;;3.90;99.90;;;;;;5074328;28;20028;-69
2021/01/21 04:30:51;;;;;;;12.40;7.35;;;3.90;99.90;;;;;;5074194;28;20458;-69
2021/01/21 04:33:16;;;;;;;10.30;7.35;;;3.80;99.90;;;;;;5074254;28;20029;-71
2021/01/21 04:35:42;;;;;;;15.07;8.48;;;3.80;99.90;;;;;;5074522;28;20020;-69
2021/01/21 04:38:08;;;;;;;18.25;9.23;;;3.90;99.90;;;;;;5073951;28;20443;-69
2021/01/21 04:40:34;;;;;;;14.30;7.63;;;3.80;99.90;;;;;;5052078;28;20027;-71
2021/01/21 04:42:59;;;;;;;11.57;7.07;;;3.90;99.90;;;;;;5074017;28;20036;-68
2021/01/21 04:45:25;;;;;;;15.20;8.15;;;3.90;99.90;;;;;;5071294;28;20033;-70
2021/01/21 04:47:51;;;;;;;14.65;7.57;;;4.00;99.90;;;;;;5068560;28;20474;-69
2021/01/21 04:50:19;;;;;;;12.90;8.35;;;3.90;99.90;;;;;;5050790;28;20071;-69
2021/01/21 04:52:46;;;;;;;13.90;7.45;;;4.00;99.90;;;;;;5073775;28;20478;-69
2021/01/21 04:55:27;;;;;;;11.50;7.15;;;4.00;99.90;;;;;;5073826;28;20078;-70
2021/01/21 04:57:59;;;;;;;14.57;8.40;;;4.00;99.90;;;;;;5073518;28;20082;-71
2021/01/21 05:00:27;;;;;;;15.23;8.43;;;4.00;99.90;;;;;;5068580;28;20078;-69
2021/01/21 05:02:55;;;;;;;13.77;8.15;;;4.00;99.90;;;;;;5056156;28;20025;-71
2021/01/21 05:05:22;;;;;;;11.43;7.63;;;4.00;99.90;;;;;;5055774;28;20034;-70
2021/01/21 05:07:48;;;;;;;11.32;7.28;;;4.00;99.90;;;;;;5073568;28;20032;-70
2021/01/21 05:10:16;;;;;;;12.93;8.30;;;4.00;99.90;;;;;;5073881;28;20459;-70
2021/01/21 05:12:41;;;;;;;11.38;8.02;;;4.00;99.90;;;;;;5073286;28;20554;-69
2021/01/21 05:15:08;;;;;;;13.98;8.35;;;4.10;99.90;;;;;;5066662;28;20096;-69
2021/01/21 05:17:34;;;;;;;12.00;7.55;;;4.00;99.90;;;;;;5054326;28;20494;-70
2021/01/21 05:20:01;;;;;;;14.27;8.23;;;4.10;99.90;;;;;;5072956;28;20039;-70
2021/01/21 05:22:27;;;;;;;19.13;10.63;;;4.10;99.90;;;;;;5072433;28;20112;-68
2021/01/21 05:24:53;;;;;;;14.85;8.63;;;4.00;99.90;;;;;;5059155;28;20100;-70
2021/01/21 05:27:20;;;;;;;14.25;7.53;;;4.00;99.90;;;;;;5073145;28;20021;-71
2021/01/21 05:29:48;;;;;;;14.63;8.55;;;4.00;99.90;;;;;;5073513;28;20021;-70
2021/01/21 05:32:15;;;;;;;12.85;8.10;;;4.00;99.90;;;;;;5072901;28;20016;-68
2021/01/21 05:34:43;;;;;;;12.63;8.85;;;4.10;99.90;;;;;;5059616;28;20044;-67
2021/01/21 05:37:13;;;;;;;12.27;8.10;;;4.10;99.90;;;;;;5059604;28;20023;-69
2021/01/21 05:39:43;;;;;;;14.00;8.10;;;4.10;99.90;;;;;;5073152;28;20061;-71
2021/01/21 05:42:10;;;;;;;13.23;8.20;;;4.10;99.90;;;;;;5073321;28;20012;-70
2021/01/21 05:44:36;;;;;;;11.27;8.25;;;4.10;99.90;;;;;;5071176;28;20036;-71
2021/01/21 05:47:08;;;;;;;12.85;8.05;;;4.10;99.90;;;;;;5071081;28;20150;-70
2021/01/21 05:49:34;;;;;;;13.45;8.57;;;4.20;99.90;;;;;;5072062;28;20036;-69
2021/01/21 05:52:00;;;;;;;13.75;8.88;;;4.20;99.90;;;;;;5071665;28;20035;-70
2021/01/21 05:54:27;;;;;;;18.60;9.57;;;4.10;99.90;;;;;;5072237;28;20037;-71
2021/01/21 05:57:00;;;;;;;12.23;8.63;;;4.10;99.90;;;;;;5071669;28;20486;-70
2021/01/21 05:59:29;;;;;;;13.95;8.68;;;4.10;99.90;;;;;;5066765;28;20377;-71
2021/01/21 06:01:56;;;;;;;13.02;7.88;;;4.10;99.90;;;;;;5068077;28;20032;-72
2021/01/21 06:04:26;;;;;;;17.77;10.23;;;4.20;99.90;;;;;;5073368;28;20055;-70
2021/01/21 06:06:53;;;;;;;17.75;9.52;;;4.20;99.90;;;;;;5070349;28;20078;-71
2021/01/21 06:09:25;;;;;;;16.88;9.10;;;4.20;99.90;;;;;;5072216;28;20025;-71
2021/01/21 06:11:52;;;;;;;15.15;8.70;;;4.20;99.90;;;;;;5072721;28;20021;-71
2021/01/21 06:14:23;;;;;;;16.98;9.30;;;4.30;99.90;;;;;;5074088;28;20042;-70
2021/01/21 06:16:52;;;;;;;14.82;8.10;;;4.30;99.90;;;;;;5074127;28;20037;-69
2021/01/21 06:19:19;;;;;;;15.02;8.85;;;4.30;99.90;;;;;;5072135;28;20059;-76
2021/01/21 06:21:57;;;;;;;15.70;8.30;;;4.40;99.90;;;;;;5071045;28;20032;-72
2021/01/21 06:24:30;;;;;;;13.02;8.35;;;4.40;99.90;;;;;;5071867;28;20032;-71
2021/01/21 06:27:01;;;;;;;14.93;9.10;;;4.50;99.90;;;;;;5052033;28;20112;-71
2021/01/21 06:29:28;;;;;;;13.43;8.30;;;4.50;99.90;;;;;;5071958;28;20039;-72
2021/01/21 06:32:02;;;;;;;14.82;8.93;;;4.50;99.90;;;;;;5072445;28;20020;-70
2021/01/21 06:34:32;;;;;;;16.88;8.85;;;4.60;99.90;;;;;;5072521;28;20529;-70
2021/01/21 06:37:16;;;;;;;16.67;9.52;;;4.60;99.90;;;;;;5072535;28;20406;-71
2021/01/21 06:40:00;;;;;;;16.48;8.57;;;4.60;99.90;;;;;;5076546;28;20591;-75
2021/01/21 06:42:28;;;;;;;15.02;9.25;;;4.60;99.90;;;;;;5072724;28;20115;-71
2021/01/21 06:44:56;;;;;;;19.13;9.70;;;4.60;99.90;;;;;;5075304;28;20021;-71
2021/01/21 06:47:24;;;;;;;15.35;9.20;;;4.70;99.90;;;;;;5072158;28;20408;-71
2021/01/21 06:50:00;;;;;;;12.50;7.90;;;4.70;99.90;;;;;;5074490;28;20078;-69
2021/01/21 06:52:31;;;;;;;14.60;9.65;;;4.70;99.90;;;;;;5073747;28;20474;-70
2021/01/21 06:55:00;;;;;;;19.17;9.95;;;4.80;99.90;;;;;;5076051;28;20362;-70
2021/01/21 06:57:35;;;;;;;15.75;10.65;;;4.80;99.90;;;;;;5056454;28;20021;-72
2021/01/21 07:00:15;;;;;;;16.98;9.55;;;4.80;99.90;;;;;;5075073;28;20026;-70
2021/01/21 07:02:49;;;;;;;17.70;10.73;;;4.90;99.90;;;;;;5074928;28;20490;-70
2021/01/21 07:05:20;;;;;;;31.75;15.68;;;4.90;99.90;;;;;;5065603;28;20020;-70
2021/01/21 07:08:03;;;;;;;33.15;14.63;;;5.00;99.90;;;;;;5076066;28;20040;-71
2021/01/21 07:10:34;;;;;;;29.20;16.15;;;5.00;99.90;;;;;;5065168;28;20471;-71
2021/01/21 07:13:27;;;;;;;27.33;14.10;;;5.00;99.90;;;;;;5074263;28;20433;-71
2021/01/21 07:15:57;;;;;;;23.30;13.40;;;5.10;99.90;;;;;;5067484;28;20063;-71
2021/01/21 07:18:28;;;;;;;26.17;14.02;;;5.20;99.90;;;;;;5075615;28;20044;-71
2021/01/21 07:21:00;;;;;;;19.67;13.07;;;5.20;99.90;;;;;;5074365;28;20065;-74
2021/01/21 07:23:46;;;;;;;21.25;12.32;;;5.30;99.90;;;;;;5073897;28;20081;-74
2021/01/21 07:26:27;;;;;;;25.55;14.18;;;5.40;99.90;;;;;;5073314;28;20445;-70
2021/01/21 07:29:05;;;;;;;24.05;10.88;;;5.50;99.90;;;;;;5073945;28;20020;-70
2021/01/21 07:31:54;;;;;;;16.55;9.52;;;5.60;99.90;;;;;;5073865;28;20032;-71
2021/01/21 07:34:43;;;;;;;17.05;9.88;;;5.70;99.90;;;;;;5073765;28;20067;-71
2021/01/21 07:37:25;;;;;;;21.40;10.70;;;5.80;99.90;;;;;;5073043;28;20039;-72
2021/01/21 07:40:07;;;;;;;14.45;9.60;;;5.80;99.90;;;;;;5073472;28;20159;-73
2021/01/21 07:42:33;;;;;;;13.63;8.40;;;5.80;99.90;;;;;;5074169;28;20020;-71
2021/01/21 07:45:25;;;;;;;13.07;8.55;;;5.80;99.90;;;;;;5073955;28;20054;-72
2021/01/21 07:47:52;;;;;;;13.73;8.63;;;5.80;99.90;;;;;;5064426;28;20070;-71
2021/01/21 07:52:51;;;;;;;15.93;10.10;;;5.90;99.90;;;;;;5074103;28;20040;-70
2021/01/21 07:55:38;;;;;;;17.17;10.07;;;6.00;99.90;;;;;;5074703;28;20070;-71
2021/01/21 07:58:24;;;;;;;16.75;11.10;;;6.10;99.90;;;;;;5056045;28;20028;-70
2021/01/21 08:00:56;;;;;;;14.15;8.40;;;6.20;99.90;;;;;;5065381;28;20086;-72
2021/01/21 08:03:41;;;;;;;17.75;7.68;;;5.70;99.90;;;;;;5066987;28;20040;-73
2021/01/21 08:06:10;;;;;;;11.00;7.10;;;6.20;99.90;;;;;;5068694;28;20020;-70
2021/01/21 08:08:40;;;;;;;12.30;8.32;;;6.30;99.90;;;;;;5073133;28;20370;-71
2021/01/21 08:11:11;;;;;;;13.85;8.32;;;6.30;99.90;;;;;;5061737;28;20116;-71
2021/01/21 08:13:37;;;;;;;14.73;8.75;;;6.30;99.90;;;;;;5059585;28;20033;-71
2021/01/21 08:16:05;;;;;;;21.42;10.60;;;6.40;99.90;;;;;;5069541;28;20021;-73
2021/01/21 08:18:31;;;;;;;20.90;10.93;;;;;;;;;;5066416;28;20076;-71
2021/01/21 08:20:57;;;;;;;23.75;12.95;;;6.50;99.90;;;;;;5068418;28;20020;-69
2021/01/21 08:23:22;;;;;;;23.30;11.77;;;6.50;99.90;;;;;;5073917;28;20135;-71
2021/01/21 08:25:50;;;;;;;16.65;9.07;;;6.60;99.90;;;;;;5073900;28;20074;-71
2021/01/21 08:28:18;;;;;;;18.27;9.88;;;6.70;99.90;;;;;;5055707;28;20107;-71
2021/01/21 08:30:45;;;;;;;18.15;9.35;;;;;;;;;;5074148;28;20021;-71
2021/01/21 08:33:17;;;;;;;17.83;8.93;;;;;;;;;;5067259;28;20037;-69
2021/01/21 08:35:45;;;;;;;13.43;8.88;;;;;;;;;;5069033;28;20063;-72
2021/01/21 08:38:12;;;;;;;25.17;10.32;;;;;;;;;;5067211;28;20463;-71
2021/01/21 08:40:38;;;;;;;22.38;11.27;;;;;;;;;;5071077;28;20100;-72
2021/01/21 08:43:06;;;;;;;18.90;10.30;;;;;;;;;;5073011;28;20123;-72
2021/01/21 08:45:32;;;;;;;21.83;11.77;;;;;;;;;;5074111;28;20059;-72
2021/01/21 08:47:59;;;;;;;21.02;12.13;;;;;;;;;;5050784;28;20489;-71
2021/01/21 08:50:34;;;;;;;19.98;11.38;;;;;;;;;;5072746;28;20386;-71
2021/01/21 08:53:01;;;;;;;24.63;13.25;;;;;;;;;;5073746;28;20107;-71
2021/01/21 08:55:39;;;;;;;26.55;13.50;;;;;;;;;;5072878;28;20024;-71
2021/01/21 08:58:06;;;;;;;31.70;15.80;;;;;;;;;;5070630;28;20044;-70
2021/01/21 09:00:32;;;;;;;22.08;13.40;;;;;;;;;;5073436;28;20025;-71
2021/01/21 09:02:59;;;;;;;20.58;11.43;;;;;;;;;;5073386;28;20454;-71
2021/01/21 09:05:25;;;;;;;23.58;10.70;;;;;;;;;;5055465;28;20077;-71
2021/01/21 09:07:52;;;;;;;20.08;10.95;;;;;;;;;;5040351;28;20023;-70
2021/01/21 09:10:18;;;;;;;20.80;10.77;;;;;;;;;;5072904;28;20024;-70
2021/01/21 09:12:44;;;;;;;21.30;11.57;;;;;;;;;;5073487;28;20028;-70
2021/01/21 09:15:12;;;;;;;20.02;12.60;;;;;;;;;;5073806;28;20028;-71
2021/01/21 09:17:38;;;;;;;16.60;10.50;;;;;;;;;;5059389;28;20049;-71
2021/01/21 09:20:26;;;;;;;14.35;9.02;;;;;;;;;;5067437;28;20024;-70
2021/01/21 09:22:53;;;;;;;15.85;9.20;;;;;;;;;;5066753;28;20036;-70
2021/01/21 09:25:26;;;;;;;14.98;9.30;;;;;;;;;;5072875;28;20092;-72
2021/01/21 09:27:56;;;;;;;19.48;9.25;;;;;;;;;;5073372;28;20497;-72
2021/01/21 09:30:26;;;;;;;17.70;10.55;;;;;;;;;;5073231;28;20037;-71
2021/01/21 09:32:52;;;;;;;15.18;8.52;;;;;;;;;;5065950;28;20028;-73
2021/01/21 09:35:19;;;;;;;16.75;9.02;;;;;;;;;;5072999;28;20023;-72
2021/01/21 09:37:50;;;;;;;13.27;9.43;;;;;;;;;;5071581;28;20051;-70
2021/01/21 09:40:19;;;;;;;13.18;8.45;;;;;;;;;;5073162;28;20017;-72
2021/01/21 09:42:45;;;;;;;18.55;9.00;;;;;;;;;;5072657;28;20347;-73
2021/01/21 09:45:11;;;;;;;13.23;8.82;;;;;;;;;;5072791;28;20096;-70
2021/01/21 09:47:37;;;;;;;15.68;8.93;;;;;;;;;;5070103;28;20103;-71
2021/01/21 09:50:07;;;;;;;16.20;9.13;;;;;;;;;;5072740;28;20024;-72
2021/01/21 09:52:34;;;;;;;16.60;8.15;;;;;;;;;;5072279;28;20500;-71
2021/01/21 09:55:00;;;;;;;15.10;9.75;;;;;;;;;;5072988;28;20050;-70
2021/01/21 09:57:29;;;;;;;16.85;8.38;;;;;;;;;;5072881;28;20023;-71
2021/01/21 09:59:55;;;;;;;14.23;9.55;;;;;;;;;;5072150;28;20024;-71
2021/01/21 10:02:22;;;;;;;14.23;8.77;;;;;;;;;;5072009;28;20562;-72
2021/01/21 10:04:48;;;;;;;15.05;9.75;;;;;;;;;;5072554;28;20039;-71
2021/01/21 10:07:14;;;;;;;16.20;8.82;;;;;;;;;;5045379;28;20023;-72
2021/01/21 10:09:40;;;;;;;14.70;8.32;;;;;;;;;;5054887;28;20407;-72
2021/01/21 10:12:07;;;;;;;14.32;9.25;;;;;;;;;;5072958;28;20051;-69
2021/01/21 10:14:33;;;;;;;17.08;9.25;;;;;;;;;;5076273;28;20482;-72
2021/01/21 10:17:02;;;;;;;15.00;10.30;;;;;;;;;;5075955;28;20040;-71
2021/01/21 10:19:28;;;;;;;17.98;9.68;;;;;;;;;;5076168;28;20012;-69
2021/01/21 10:21:54;;;;;;;15.20;8.90;;;;;;;;;;5076770;28;20359;-71
2021/01/21 10:24:23;;;;;;;13.98;9.35;;;;;;;;;;5076537;28;20024;-71
2021/01/21 10:26:50;;;;;;;18.85;10.15;;;;;;;;;;5076660;28;20052;-72
2021/01/21 10:29:16;;;;;;;15.43;9.77;;;;;;;;;;5076633;28;20524;-71
2021/01/21 10:31:42;;;;;;;16.60;8.70;;;;;;;;;;5076415;28;20024;-74
2021/01/21 10:34:09;;;;;;;17.02;9.18;;;;;;;;;;5076060;28;20504;-71
2021/01/21 10:36:36;;;;;;;18.90;9.40;;;;;;;;;;5076533;28;20086;-70
2021/01/21 10:39:03;;;;;;;14.02;8.75;;;;;;;;;;5076487;28;20096;-74
2021/01/21 10:41:29;;;;;;;12.70;8.45;;;;;;;;;;5076141;28;20024;-72
2021/01/21 10:43:55;;;;;;;12.80;8.15;;;;;;;;;;5076060;28;20040;-70
2021/01/21 10:46:21;;;;;;;18.23;8.85;;;;;;;;;;5076747;28;20103;-73
2021/01/21 10:48:47;;;;;;;19.17;9.63;;;;;;;;;;5063673;28;20028;-75
2021/01/21 10:51:13;;;;;;;14.00;8.70;;;;;;;;;;5066133;28;20020;-72
2021/01/21 10:53:39;;;;;;;12.50;9.35;;;;;;;;;;5076657;28;20033;-71
2021/01/21 10:56:05;;;;;;;17.00;9.45;;;;;;;;;;5077859;28;20019;-71
2021/01/21 10:58:32;;;;;;;18.25;8.20;;;;;;;;;;5076857;28;20111;-71
2021/01/21 11:00:58;;;;;;;17.10;10.10;;;;;;;;;;5076225;28;20477;-71
2021/01/21 11:03:24;;;;;;;14.65;10.18;;;;;;;;;;5075885;28;20523;-71
2021/01/21 11:05:50;;;;;;;16.50;10.98;;;;;;;;;;5075725;28;20103;-74
2021/01/21 11:08:16;;;;;;;17.08;10.52;;;;;;;;;;5075681;28;20057;-72
2021/01/21 11:10:42;;;;;;;16.52;10.48;;;;;;;;;;5075641;28;20382;-72
2021/01/21 11:13:16;;;;;;;19.33;10.98;;;;;;;;;;5075604;28;20029;-73
2021/01/21 11:15:42;;;;;;;15.43;9.10;;;;;;;;;;5072832;28;20025;-73
2021/01/21 11:18:08;;;;;;;15.23;9.38;;;;;;;;;;5059382;28;20044;-72
2021/01/21 11:20:35;;;;;;;20.27;10.25;;;;;;;;;;5075595;28;20074;-72
2021/01/21 11:23:01;;;;;;;16.75;10.77;;;;;;;;;;5060610;28;20072;-72
2021/01/21 11:25:27;;;;;;;19.67;9.32;;;;;;;;;;5075890;28;20059;-71
2021/01/21 11:27:53;;;;;;;16.27;9.95;;;;;;;;;;5075611;28;20025;-72
2021/01/21 11:30:20;;;;;;;17.67;9.93;;;;;;;;;;5075534;28;20077;-72
2021/01/21 11:32:46;;;;;;;15.93;9.23;;;;;;;;;;5075474;28;20032;-73
2021/01/21 11:35:12;;;;;;;17.92;9.90;;;;;;;;;;5075380;28;20359;-75
2021/01/21 11:37:38;;;;;;;12.73;9.10;;;;;;;;;;5075087;28;20021;-72
2021/01/21 11:40:05;;;;;;;15.10;8.85;;;;;;;;;;5075801;28;20158;-73
2021/01/21 11:42:31;;;;;;;16.15;8.43;;;;;;;;;;5057662;28;20056;-71
2021/01/21 11:44:57;;;;;;;14.88;9.45;;;;;;;;;;5074957;28;20096;-73
2021/01/21 11:47:23;;;;;;;19.33;9.60;;;;;;;;;;5057598;28;20151;-73
2021/01/21 11:49:49;;;;;;;17.50;10.07;;;;;;;;;;5057431;28;20020;-72
2021/01/21 11:52:16;;;;;;;17.45;10.27;;;;;;;;;;5062357;28;20031;-72
2021/01/21 11:54:42;;;;;;;12.52;8.40;;;;;;;;;;5074536;28;20037;-72
2021/01/21 11:57:08;;;;;;;14.63;9.27;;;;;;;;;;5070973;28;20047;-71
2021/01/21 11:59:34;;;;;;;13.55;8.90;;;;;;;;;;5073934;28;20025;-71
2021/01/21 12:02:00;;;;;;;15.52;9.50;;;;;;;;;;5073962;28;20017;-74
2021/01/21 12:04:26;;;;;;;14.57;8.05;;;;;;;;;;5073604;28;20056;-72
2021/01/21 12:06:52;;;;;;;19.55;9.80;;;;;;;;;;5060922;28;20028;-74
2021/01/21 12:09:18;;;;;;;20.30;10.90;;;;;;;;;;5050432;28;20021;-72
2021/01/21 12:11:44;;;;;;;18.10;10.50;;;;;;;;;;5072158;28;20025;-73
2021/01/21 12:14:10;;;;;;;17.80;9.07;;;;;;;;;;5073413;28;20036;-74
2021/01/21 12:16:36;;;;;;;12.57;8.75;;;;;;;;;;5071498;28;20036;-74
2021/01/21 12:19:02;;;;;;;16.48;9.48;;;;;;;;;;5073671;28;20417;-72
2021/01/21 12:21:32;;;;;;;16.33;8.90;;;;;;;;;;5046194;28;20048;-75
2021/01/21 12:23:58;;;;;;;18.33;10.20;;;;;;;;;;5037428;28;20032;-74
2021/01/21 12:26:24;;;;;;;15.38;9.77;;;;;;;;;;5069353;28;20017;-74
2021/01/21 12:28:50;;;;;;;13.95;8.40;;;;;;;;;;5054528;28;20032;-72
2021/01/21 12:31:17;;;;;;;16.13;9.95;;;;;;;;;;5073096;28;20028;-73
2021/01/21 12:33:43;;;;;;;13.45;7.93;;;;;;;;;;5072383;28;20027;-73
2021/01/21 12:36:09;;;;;;;13.52;9.00;;;;;;;;;;5071955;28;20571;-71
2021/01/21 12:38:35;;;;;;;17.42;9.50;;;;;;;;;;5073317;28;20100;-71
2021/01/21 12:41:01;;;;;;;16.40;9.35;;;;;;;;;;5073032;28;20121;-71
2021/01/21 12:43:28;;;;;;;13.95;9.68;;;;;;;;;;5072750;28;20029;-71
2021/01/21 12:45:54;;;;;;;12.75;8.30;;;;;;;;;;5072985;28;20024;-73
2021/01/21 12:48:20;;;;;;;15.55;8.38;;;;;;;;;;5071586;28;20021;-71
2021/01/21 12:50:47;;;;;;;15.98;9.27;;;;;;;;;;5070500;28;20017;-72
2021/01/21 12:53:13;;;;;;;12.82;8.50;;;;;;;;;;5071495;28;20036;-72
2021/01/21 12:55:39;;;;;;;13.68;8.63;;;;;;;;;;5070939;28;20591;-72
2021/01/21 12:58:05;;;;;;;20.83;8.68;;;;;;;;;;5061733;28;20048;-75
2021/01/21 13:00:31;;;;;;;15.23;9.45;;;;;;;;;;5069224;28;20036;-72
2021/01/21 13:02:57;;;;;;;17.60;9.93;;;;;;;;;;5071405;28;20013;-72
2021/01/21 13:05:23;;;;;;;18.25;9.65;;;;;;;;;;5054306;28;20094;-71
2021/01/21 13:07:50;;;;;;;12.55;8.55;;;;;;;;;;5072557;28;20103;-72
2021/01/21 13:10:16;;;;;;;12.02;7.43;;;;;;;;;;5071822;28;20032;-71
2021/01/21 13:12:43;;;;;;;12.90;8.48;;;;;;;;;;5071725;28;20024;-72
2021/01/21 13:15:09;;;;;;;11.65;7.45;;;;;;;;;;5075569;28;20035;-71
2021/01/21 13:17:35;;;;;;;14.02;8.75;;;;;;;;;;5077396;28;20053;-71
2021/01/21 13:20:01;;;;;;;16.83;9.82;;;;;;;;;;5056012;28;20072;-73
2021/01/21 13:22:27;;;;;;;15.70;9.13;;;;;;;;;;5062596;28;20074;-71
2021/01/21 13:24:53;;;;;;;19.02;8.40;;;;;;;;;;5071653;28;20126;-71
2021/01/21 13:27:20;;;;;;;18.98;9.98;;;;;;;;;;5071820;28;20077;-73